createdAt,value
2023-03-13T00:00:53.310Z,7.06
2023-03-13T00:03:20.798Z,7.05
2023-03-13T00:05:48.258Z,7.12
2023-03-13T00:08:15.800Z,7.17
2023-03-13T00:10:44.639Z,7.14
2023-03-13T00:13:12.105Z,7.03
2023-03-13T00:15:39.563Z,7.17
2023-03-13T00:18:07.131Z,7.16
2023-03-13T00:20:34.636Z,7.12
2023-03-13T00:23:02.117Z,7.00
2023-03-13T00:25:29.629Z,7.09
2023-03-13T00:27:58.430Z,6.97
2023-03-13T00:30:26.105Z,6.91
2023-03-13T00:32:53.648Z,6.95
2023-03-13T00:35:21.194Z,6.76
2023-03-13T00:37:48.703Z,6.63
2023-03-13T00:40:16.282Z,6.65
2023-03-13T00:42:43.751Z,6.81
2023-03-13T00:45:12.783Z,6.81
2023-03-13T00:47:40.197Z,6.78
2023-03-13T00:50:08.327Z,6.68
2023-03-13T00:52:35.772Z,6.77
2023-03-13T00:55:04.089Z,6.81
2023-03-13T00:57:31.520Z,6.81
2023-03-13T00:59:58.960Z,6.61
2023-03-13T01:02:27.890Z,6.70
2023-03-13T01:04:55.405Z,6.74
2023-03-13T01:07:22.986Z,6.74
2023-03-13T01:09:50.431Z,6.72
2023-03-13T01:12:17.848Z,6.76
2023-03-13T01:14:45.265Z,6.76
2023-03-13T01:17:12.726Z,6.71
2023-03-13T01:19:41.497Z,6.70
2023-03-13T01:22:11.145Z,6.79
2023-03-13T01:24:38.558Z,6.80
2023-03-13T01:27:06.018Z,6.83
2023-03-13T01:29:33.512Z,6.84
2023-03-13T01:32:00.938Z,6.55
2023-03-13T01:34:28.397Z,6.58
2023-03-13T01:36:57.179Z,6.76
2023-03-13T01:39:24.605Z,6.69
2023-03-13T01:41:52.038Z,6.73
2023-03-13T01:44:24.817Z,6.64
2023-03-13T01:46:52.615Z,6.72
2023-03-13T01:49:24.149Z,6.74
2023-03-13T01:51:54.575Z,6.76
2023-03-13T01:54:29.583Z,6.80
2023-03-13T01:57:02.837Z,6.81
2023-03-13T01:59:35.946Z,6.80
2023-03-13T02:02:04.210Z,6.82
2023-03-13T02:04:36.037Z,6.84
2023-03-13T02:07:08.498Z,6.70
2023-03-13T02:09:39.754Z,6.91
2023-03-13T02:12:10.787Z,6.94
2023-03-13T02:14:41.919Z,6.97
2023-03-13T02:17:09.392Z,6.96
2023-03-13T02:19:42.554Z,6.99
2023-03-13T02:22:17.795Z,7.01
2023-03-13T02:24:55.567Z,7.03
2023-03-13T02:27:25.381Z,7.06
2023-03-13T02:29:53.738Z,7.08
2023-03-13T02:32:22.819Z,7.11
2023-03-13T02:34:53.615Z,7.14
2023-03-13T02:37:22.752Z,7.15
2023-03-13T02:39:52.354Z,7.21
2023-03-13T02:42:22.972Z,7.24
2023-03-13T02:44:52.128Z,7.24
2023-03-13T02:47:20.290Z,7.31
2023-03-13T02:49:47.746Z,7.23
2023-03-13T02:52:18.644Z,7.41
2023-03-13T02:54:50.498Z,7.22
2023-03-13T02:57:17.950Z,7.53
2023-03-13T02:59:45.413Z,7.55
2023-03-13T03:02:14.199Z,7.59
2023-03-13T03:04:41.656Z,7.65
2023-03-13T03:07:09.182Z,7.74
2023-03-13T03:09:36.630Z,7.74
2023-03-13T03:12:04.219Z,7.82
2023-03-13T03:14:32.013Z,7.85
2023-03-13T03:16:59.534Z,7.86
2023-03-13T03:19:28.507Z,7.87
2023-03-13T03:21:55.957Z,7.77
2023-03-13T03:24:23.469Z,7.89
2023-03-13T03:26:50.927Z,7.92
2023-03-13T03:29:18.947Z,7.88
2023-03-13T03:31:46.470Z,8.00
2023-03-13T03:34:13.909Z,8.02
2023-03-13T03:36:42.686Z,7.97
2023-03-13T03:39:10.098Z,8.00
2023-03-13T03:41:38.017Z,7.98
2023-03-13T03:44:05.885Z,8.00
2023-03-13T03:46:33.319Z,7.83
2023-03-13T03:49:00.807Z,8.05
2023-03-13T03:51:28.491Z,8.05
2023-03-13T03:53:57.265Z,8.05
2023-03-13T03:56:24.689Z,8.04
2023-03-13T03:58:52.144Z,8.01
2023-03-13T04:01:19.574Z,8.13
2023-03-13T04:03:48.211Z,8.13
2023-03-13T04:06:16.007Z,8.15
2023-03-13T04:08:43.439Z,8.19
2023-03-13T04:11:12.261Z,8.19
2023-03-13T04:13:39.714Z,8.23
2023-03-13T04:16:08.703Z,8.24
2023-03-13T04:18:36.441Z,8.28
2023-03-13T04:21:05.905Z,8.28
2023-03-13T04:23:33.548Z,8.29
2023-03-13T04:26:00.998Z,8.31
2023-03-13T04:28:29.803Z,8.32
2023-03-13T04:30:58.160Z,8.41
2023-03-13T04:33:26.230Z,8.43
2023-03-13T04:35:53.755Z,8.36
2023-03-13T04:38:21.274Z,8.54
2023-03-13T04:40:48.852Z,8.56
2023-03-13T04:43:16.288Z,8.66
2023-03-13T04:45:45.089Z,8.68
2023-03-13T04:48:12.553Z,8.73
2023-03-13T04:50:39.974Z,8.78
2023-03-13T04:53:07.422Z,8.52
2023-03-13T04:55:34.891Z,8.75
2023-03-13T04:58:02.308Z,8.75
2023-03-13T05:00:29.731Z,8.86
2023-03-13T05:02:58.531Z,8.90
2023-03-13T05:05:26.124Z,8.91
2023-03-13T05:07:53.624Z,8.94
2023-03-13T05:10:21.059Z,8.94
2023-03-13T05:12:48.607Z,8.94
2023-03-13T05:15:16.278Z,8.99
2023-03-13T05:17:43.786Z,8.98
2023-03-13T05:20:13.448Z,9.04
2023-03-13T05:22:40.909Z,8.93
2023-03-13T05:25:09.062Z,9.01
2023-03-13T05:27:36.583Z,9.11
2023-03-13T05:30:04.326Z,9.17
2023-03-13T05:32:31.796Z,9.17
2023-03-13T05:34:59.301Z,9.21
2023-03-13T05:37:28.160Z,9.17
2023-03-13T05:39:55.694Z,9.26
2023-03-13T05:42:23.506Z,9.26
2023-03-13T05:44:50.946Z,9.27
2023-03-13T05:47:18.864Z,9.34
2023-03-13T05:49:46.314Z,9.31
2023-03-13T05:52:13.783Z,9.33
2023-03-13T05:54:42.553Z,9.32
2023-03-13T05:57:09.966Z,9.34
2023-03-13T05:59:37.407Z,9.36
2023-03-13T06:02:05.195Z,9.39
2023-03-13T06:04:32.781Z,9.39
2023-03-13T06:07:00.264Z,9.31
2023-03-13T06:09:27.725Z,9.37
2023-03-13T06:11:56.501Z,9.36
2023-03-13T06:14:23.967Z,9.35
2023-03-13T06:16:51.393Z,9.34
2023-03-13T06:19:19.061Z,9.46
2023-03-13T06:21:47.064Z,9.43
2023-03-13T06:24:14.700Z,9.49
2023-03-13T06:26:42.196Z,9.54
2023-03-13T06:29:11.677Z,9.39
2023-03-13T06:31:39.319Z,9.54
2023-03-13T06:34:06.830Z,9.64
2023-03-13T06:36:34.368Z,9.65
2023-03-13T06:39:01.860Z,9.71
2023-03-13T06:41:29.297Z,9.71
2023-03-13T06:43:56.830Z,9.70
2023-03-13T06:46:27.131Z,9.71
2023-03-13T06:48:58.663Z,9.74
2023-03-13T06:51:26.473Z,9.75
2023-03-13T06:53:53.954Z,9.71
2023-03-13T06:56:21.765Z,9.74
2023-03-13T06:58:49.775Z,9.71
2023-03-13T07:01:19.055Z,9.74
2023-03-13T07:03:48.644Z,9.72
2023-03-13T07:06:17.422Z,9.70
2023-03-13T07:08:45.455Z,9.75
2023-03-13T07:11:14.739Z,9.73
2023-03-13T07:13:42.452Z,9.74
2023-03-13T07:16:12.314Z,9.71
2023-03-13T07:18:41.638Z,9.73
2023-03-13T07:21:12.151Z,9.69
2023-03-13T07:23:40.054Z,9.61
2023-03-13T07:26:09.678Z,9.79
2023-03-13T07:28:37.996Z,9.88
2023-03-13T07:31:07.879Z,9.98
2023-03-13T07:33:36.020Z,10.02
2023-03-13T07:36:03.989Z,10.11
2023-03-13T07:38:33.089Z,10.17
2023-03-13T07:41:00.652Z,10.17
2023-03-13T07:43:29.326Z,10.14
2023-03-13T07:45:57.986Z,10.17
2023-03-13T07:48:27.232Z,10.16
2023-03-13T07:50:55.898Z,10.17
2023-03-13T07:53:23.426Z,10.17
2023-03-13T07:55:57.464Z,10.17
2023-03-13T07:58:26.433Z,10.17
2023-03-13T08:00:54.190Z,10.20
2023-03-13T08:03:22.565Z,10.15
2023-03-13T08:05:58.973Z,10.10
2023-03-13T08:08:26.433Z,10.09
2023-03-13T08:10:53.872Z,10.06
2023-03-13T08:13:22.668Z,10.02
2023-03-13T08:15:50.074Z,10.01
2023-03-13T08:18:17.498Z,10.00
2023-03-13T08:20:45.721Z,9.98
2023-03-13T08:23:13.206Z,9.94
2023-03-13T08:25:40.676Z,9.88
2023-03-13T08:28:08.761Z,9.87
2023-03-13T08:30:37.570Z,9.86
2023-03-13T08:33:07.547Z,9.82
2023-03-13T08:35:35.248Z,9.82
2023-03-13T08:38:02.874Z,9.85
2023-03-13T08:40:30.304Z,9.77
2023-03-13T08:42:57.730Z,9.82
2023-03-13T08:45:25.167Z,9.85
2023-03-13T08:47:54.665Z,9.82
2023-03-13T08:50:22.112Z,9.67
2023-03-13T08:52:49.550Z,9.82
2023-03-13T08:55:17.125Z,9.82
2023-03-13T08:57:44.560Z,9.82
2023-03-13T09:00:14.819Z,9.82
2023-03-13T09:02:42.314Z,9.80
2023-03-13T09:05:11.199Z,9.84
2023-03-13T09:07:38.632Z,9.81
2023-03-13T09:10:07.160Z,9.85
2023-03-13T09:12:34.600Z,9.84
2023-03-13T09:15:02.066Z,9.85
2023-03-13T09:17:29.514Z,9.86
2023-03-13T09:20:00.545Z,9.92
2023-03-13T09:22:29.942Z,9.98
2023-03-13T09:24:57.369Z,9.99
2023-03-13T09:27:24.805Z,10.04
2023-03-13T09:29:52.305Z,10.05
2023-03-13T09:32:20.344Z,10.23
2023-03-13T09:34:48.108Z,10.35
2023-03-13T09:37:15.615Z,10.45
2023-03-13T09:39:44.423Z,10.49
2023-03-13T09:42:16.405Z,10.69
2023-03-13T09:44:49.027Z,10.85
2023-03-13T09:47:24.097Z,10.83
2023-03-13T09:49:55.191Z,10.74
2023-03-13T09:52:25.123Z,10.80
2023-03-13T09:54:57.852Z,10.94
2023-03-13T09:57:32.271Z,10.79
2023-03-13T10:00:05.877Z,10.93
2023-03-13T10:02:35.787Z,10.89
2023-03-13T10:05:13.119Z,10.88
2023-03-13T10:07:40.594Z,10.91
2023-03-13T10:10:14.602Z,10.92
2023-03-13T10:12:46.599Z,10.88
2023-03-13T10:15:28.929Z,10.92
2023-03-13T10:17:57.244Z,10.97
2023-03-13T10:20:26.552Z,11.05
2023-03-13T10:22:59.989Z,10.97
2023-03-13T10:25:34.876Z,10.93
2023-03-13T10:28:03.158Z,11.08
2023-03-13T10:30:32.413Z,11.08
2023-03-13T10:33:01.888Z,11.14
2023-03-13T10:35:35.553Z,11.25
2023-03-13T10:38:06.951Z,11.23
2023-03-13T10:40:36.712Z,11.23
2023-03-13T10:43:06.312Z,11.32
2023-03-13T10:45:36.453Z,11.39
2023-03-13T10:48:11.533Z,11.37
2023-03-13T10:50:43.746Z,11.20
2023-03-13T10:53:24.742Z,11.25
2023-03-13T10:55:55.863Z,11.24
2023-03-13T10:58:29.379Z,11.12
2023-03-13T11:01:16.282Z,11.25
2023-03-13T11:03:44.847Z,11.33
2023-03-13T11:06:26.248Z,11.26
2023-03-13T11:09:00.785Z,11.38
2023-03-13T11:11:30.973Z,11.13
2023-03-13T11:14:09.801Z,11.34
2023-03-13T11:16:43.396Z,11.40
2023-03-13T11:19:29.367Z,11.41
2023-03-13T11:22:12.752Z,11.39
2023-03-13T11:24:45.664Z,11.44
2023-03-13T11:27:28.160Z,11.57
2023-03-13T11:30:08.922Z,11.38
2023-03-13T11:32:43.752Z,11.45
2023-03-13T11:35:21.469Z,11.63
2023-03-13T11:37:52.241Z,11.56
2023-03-13T11:40:25.368Z,11.65
2023-03-13T11:43:28.353Z,11.57
2023-03-13T11:46:13.940Z,11.40
2023-03-13T11:49:12.743Z,11.39
2023-03-13T11:51:55.772Z,11.35
2023-03-13T11:54:36.535Z,11.27
2023-03-13T11:57:12.140Z,11.35
2023-03-13T11:59:51.515Z,11.23
2023-03-13T12:02:24.335Z,11.31
2023-03-13T12:04:56.730Z,11.25
2023-03-13T12:07:29.447Z,11.32
2023-03-13T12:10:01.288Z,11.39
2023-03-13T12:12:39.373Z,11.31
2023-03-13T12:15:19.657Z,11.24
2023-03-13T12:17:52.812Z,11.27
2023-03-13T12:20:26.188Z,11.20
2023-03-13T12:23:01.859Z,11.09
2023-03-13T12:25:37.019Z,11.12
2023-03-13T12:28:17.585Z,11.07
2023-03-13T12:30:53.398Z,11.12
2023-03-13T12:33:26.394Z,11.05
2023-03-13T12:36:02.292Z,10.78
2023-03-13T12:38:37.461Z,10.87
2023-03-13T12:41:14.515Z,10.73
2023-03-13T12:43:51.775Z,10.90
2023-03-13T12:46:37.203Z,10.98
2023-03-13T12:49:24.562Z,10.94
2023-03-13T12:52:09.352Z,10.82
2023-03-13T12:54:52.458Z,10.77
2023-03-13T12:57:38.834Z,10.77
2023-03-13T13:00:16.265Z,10.68
2023-03-13T13:02:45.945Z,10.72
2023-03-13T13:05:19.990Z,10.72
2023-03-13T13:07:54.499Z,10.83
2023-03-13T13:10:25.104Z,10.83
2023-03-13T13:13:27.643Z,11.01
2023-03-13T13:16:02.078Z,11.07
2023-03-13T13:18:32.773Z,11.01
2023-03-13T13:21:21.827Z,11.09
2023-03-13T13:23:53.840Z,11.10
2023-03-13T13:26:51.536Z,11.10
2023-03-13T13:29:54.055Z,11.11
2023-03-13T13:32:31.632Z,11.14
2023-03-13T13:35:06.637Z,11.08
2023-03-13T13:37:34.802Z,11.12
2023-03-13T13:40:19.686Z,11.10
2023-03-13T13:42:53.853Z,11.07
2023-03-13T13:45:32.261Z,11.07
2023-03-13T13:48:24.201Z,11.03
2023-03-13T13:51:25.343Z,10.96
2023-03-13T13:53:59.502Z,11.01
2023-03-13T13:56:46.823Z,11.09
2023-03-13T13:59:45.620Z,11.14
2023-03-13T14:02:20.062Z,11.27
2023-03-13T14:04:52.004Z,11.28
2023-03-13T14:07:28.594Z,11.29
2023-03-13T14:10:03.956Z,11.27
2023-03-13T14:12:32.931Z,11.19
2023-03-13T14:15:14.827Z,11.03
2023-03-13T14:17:44.632Z,10.99
2023-03-13T14:20:26.605Z,11.00
2023-03-13T14:22:59.419Z,11.04
2023-03-13T14:25:29.527Z,10.93
2023-03-13T14:27:57.000Z,11.06
2023-03-13T14:30:25.361Z,11.16
2023-03-13T14:32:56.132Z,11.19
2023-03-13T14:35:23.676Z,11.28
2023-03-13T14:37:53.166Z,11.39
2023-03-13T14:40:25.968Z,11.41
2023-03-13T14:42:56.452Z,11.43
2023-03-13T14:45:27.303Z,11.47
2023-03-13T14:47:55.911Z,11.52
2023-03-13T14:50:26.015Z,11.44
2023-03-13T14:52:55.953Z,11.44
2023-03-13T14:55:33.561Z,11.48
2023-03-13T14:58:03.515Z,11.44
2023-03-13T15:00:40.064Z,11.49
2023-03-13T15:03:21.450Z,11.50
2023-03-13T15:05:50.852Z,11.70
2023-03-13T15:08:20.202Z,11.83
2023-03-13T15:10:50.293Z,11.98
2023-03-13T15:13:24.188Z,12.04
2023-03-13T15:15:52.692Z,12.10
2023-03-13T15:18:22.285Z,12.31
2023-03-13T15:20:51.154Z,11.95
2023-03-13T15:23:18.811Z,11.59
2023-03-13T15:25:46.405Z,11.45
2023-03-13T15:28:17.957Z,11.31
2023-03-13T15:30:46.198Z,11.22
2023-03-13T15:33:15.955Z,11.11
2023-03-13T15:35:44.483Z,11.25
2023-03-13T15:38:15.153Z,11.20
2023-03-13T15:40:42.679Z,11.26
2023-03-13T15:43:10.447Z,11.28
2023-03-13T15:45:41.414Z,11.25
2023-03-13T15:48:16.677Z,11.31
2023-03-13T15:50:45.097Z,11.15
2023-03-13T15:53:18.343Z,11.08
2023-03-13T15:55:46.542Z,11.04
2023-03-13T15:58:14.471Z,11.58
2023-03-13T16:00:44.012Z,11.53
2023-03-13T16:03:16.445Z,11.89
2023-03-13T16:05:44.417Z,12.20
2023-03-13T16:08:23.233Z,12.27
2023-03-13T16:11:01.850Z,12.46
2023-03-13T16:13:29.367Z,12.47
2023-03-13T16:15:58.424Z,11.85
2023-03-13T16:18:26.598Z,11.45
2023-03-13T16:20:54.270Z,11.12
2023-03-13T16:23:21.778Z,11.05
2023-03-13T16:25:49.824Z,10.89
2023-03-13T16:28:17.536Z,10.68
2023-03-13T16:30:47.116Z,10.81
2023-03-13T16:33:15.944Z,10.69
2023-03-13T16:35:43.425Z,10.60
2023-03-13T16:38:12.143Z,10.59
2023-03-13T16:40:39.597Z,10.59
2023-03-13T16:43:07.076Z,10.66
2023-03-13T16:45:34.519Z,10.65
2023-03-13T16:48:02.017Z,10.67
2023-03-13T16:50:36.083Z,10.66
2023-03-13T16:53:04.261Z,10.68
2023-03-13T16:55:36.127Z,10.76
2023-03-13T16:58:04.395Z,10.71
2023-03-13T17:00:32.817Z,10.62
2023-03-13T17:03:01.307Z,10.50
2023-03-13T17:05:29.056Z,10.44
2023-03-13T17:07:57.847Z,10.43
2023-03-13T17:10:27.654Z,10.34
2023-03-13T17:12:55.135Z,10.36
2023-03-13T17:15:24.137Z,10.32
2023-03-13T17:17:52.597Z,10.30
2023-03-13T17:20:21.985Z,10.26
2023-03-13T17:22:49.495Z,10.22
2023-03-13T17:25:18.374Z,10.16
2023-03-13T17:27:47.320Z,10.16
2023-03-13T17:30:26.272Z,10.16
2023-03-13T17:32:54.394Z,10.17
2023-03-13T17:35:21.967Z,10.05
2023-03-13T17:37:49.881Z,9.99
2023-03-13T17:40:21.391Z,10.02
2023-03-13T17:42:49.151Z,9.97
2023-03-13T17:45:17.606Z,10.01
2023-03-13T17:47:45.777Z,9.99
2023-03-13T17:50:16.972Z,10.00
2023-03-13T17:52:44.545Z,9.82
2023-03-13T17:55:12.692Z,9.79
2023-03-13T17:57:41.693Z,9.82
2023-03-13T18:00:19.975Z,9.84
2023-03-13T18:02:47.427Z,9.81
2023-03-13T18:05:15.194Z,9.57
2023-03-13T18:07:44.124Z,9.50
2023-03-13T18:10:20.418Z,9.68
2023-03-13T18:12:50.587Z,9.70
2023-03-13T18:15:18.444Z,9.66
2023-03-13T18:17:45.948Z,9.58
2023-03-13T18:20:16.115Z,9.58
2023-03-13T18:22:43.597Z,9.51
2023-03-13T18:25:11.889Z,9.35
2023-03-13T18:27:39.739Z,9.32
2023-03-13T18:30:15.669Z,9.28
2023-03-13T18:32:43.387Z,9.29
2023-03-13T18:35:14.792Z,8.70
2023-03-13T18:37:44.192Z,9.15
2023-03-13T18:40:19.037Z,8.65
2023-03-13T18:42:47.097Z,8.98
2023-03-13T18:45:17.752Z,8.89
2023-03-13T18:47:45.698Z,9.00
2023-03-13T18:50:22.425Z,8.71
2023-03-13T18:52:50.288Z,8.73
2023-03-13T18:55:18.077Z,8.81
2023-03-13T18:57:48.569Z,8.70
2023-03-13T19:00:20.417Z,8.94
2023-03-13T19:02:48.334Z,8.87
2023-03-13T19:05:16.468Z,8.63
2023-03-13T19:07:44.233Z,8.74
2023-03-13T19:10:20.482Z,8.67
2023-03-13T19:12:48.472Z,8.26
2023-03-13T19:15:16.324Z,8.49
2023-03-13T19:17:46.216Z,8.30
2023-03-13T19:20:15.616Z,8.56
2023-03-13T19:22:43.350Z,8.53
2023-03-13T19:25:12.052Z,8.49
2023-03-13T19:27:40.643Z,8.42
2023-03-13T19:30:17.088Z,8.35
2023-03-13T19:32:46.287Z,8.32
2023-03-13T19:35:16.705Z,8.19
2023-03-13T19:37:44.311Z,8.00
2023-03-13T19:40:18.256Z,8.24
2023-03-13T19:42:47.618Z,8.21
2023-03-13T19:45:18.901Z,7.97
2023-03-13T19:47:47.830Z,8.14
2023-03-13T19:50:20.782Z,8.12
2023-03-13T19:52:48.464Z,8.12
2023-03-13T19:55:16.798Z,7.61
2023-03-13T19:57:45.855Z,7.69
2023-03-13T20:00:24.275Z,8.03
2023-03-13T20:02:55.914Z,7.79
2023-03-13T20:05:25.810Z,8.06
2023-03-13T20:07:55.237Z,7.86
2023-03-13T20:10:23.045Z,8.01
2023-03-13T20:12:50.778Z,7.94
2023-03-13T20:15:18.534Z,7.93
2023-03-13T20:17:47.452Z,7.90
2023-03-13T20:20:17.297Z,7.92
2023-03-13T20:22:44.842Z,7.89
2023-03-13T20:25:12.443Z,7.38
2023-03-13T20:27:40.309Z,7.41
2023-03-13T20:30:09.259Z,7.43
2023-03-13T20:32:39.371Z,7.56
2023-03-13T20:35:13.908Z,7.79
2023-03-13T20:37:42.925Z,7.50
2023-03-13T20:40:11.711Z,7.58
2023-03-13T20:42:39.674Z,7.57
2023-03-13T20:45:09.355Z,7.38
2023-03-13T20:47:37.558Z,7.56
2023-03-13T20:50:08.581Z,7.41
2023-03-13T20:52:42.772Z,7.58
2023-03-13T20:55:13.563Z,7.60
2023-03-13T20:57:41.143Z,7.58
2023-03-13T21:00:12.273Z,7.30
2023-03-13T21:02:39.846Z,7.28
2023-03-13T21:05:08.388Z,7.35
2023-03-13T21:07:38.725Z,7.51
2023-03-13T21:10:07.226Z,7.52
2023-03-13T21:12:37.375Z,7.32
2023-03-13T21:15:08.182Z,7.30
2023-03-13T21:17:36.410Z,7.37
2023-03-13T21:20:08.802Z,7.48
2023-03-13T21:22:37.634Z,7.71
2023-03-13T21:25:06.777Z,7.69
2023-03-13T21:27:38.947Z,7.34
2023-03-13T21:30:10.247Z,7.72
2023-03-13T21:32:38.912Z,7.56
2023-03-13T21:35:08.117Z,7.61
2023-03-13T21:37:35.948Z,7.87
2023-03-13T21:40:04.678Z,7.90
2023-03-13T21:42:34.258Z,7.64
2023-03-13T21:45:03.416Z,7.85
2023-03-13T21:47:31.638Z,7.94
2023-03-13T21:50:00.553Z,7.86
2023-03-13T21:52:30.290Z,7.94
2023-03-13T21:54:57.869Z,7.91
2023-03-13T21:57:28.595Z,7.58
2023-03-13T21:59:56.078Z,7.76
2023-03-13T22:02:24.995Z,7.94
2023-03-13T22:04:52.709Z,7.88
2023-03-13T22:07:20.548Z,7.58
2023-03-13T22:09:48.236Z,7.82
2023-03-13T22:12:17.424Z,7.91
2023-03-13T22:14:45.004Z,7.82
2023-03-13T22:17:16.688Z,7.81
2023-03-13T22:19:46.181Z,7.56
2023-03-13T22:22:14.324Z,7.29
2023-03-13T22:24:41.861Z,7.62
2023-03-13T22:27:10.090Z,7.71
2023-03-13T22:29:37.569Z,7.58
2023-03-13T22:32:05.682Z,7.66
2023-03-13T22:34:33.314Z,7.56
2023-03-13T22:37:02.202Z,7.64
2023-03-13T22:39:29.687Z,7.58
2023-03-13T22:41:57.107Z,7.61
2023-03-13T22:44:24.619Z,7.58
2023-03-13T22:46:52.070Z,7.48
2023-03-13T22:49:19.575Z,7.45
2023-03-13T22:51:47.134Z,7.50
2023-03-13T22:54:16.076Z,7.24
2023-03-13T22:56:43.642Z,7.60
2023-03-13T22:59:11.096Z,7.51
2023-03-13T23:01:38.556Z,7.65
2023-03-13T23:04:06.147Z,7.76
2023-03-13T23:06:33.668Z,7.75
2023-03-13T23:09:01.139Z,7.69
2023-03-13T23:11:30.210Z,7.71
2023-03-13T23:13:57.678Z,7.71
2023-03-13T23:16:25.317Z,7.48
2023-03-13T23:18:52.823Z,7.68
2023-03-13T23:21:20.307Z,7.64
2023-03-13T23:23:48.724Z,7.60
2023-03-13T23:26:17.459Z,7.60
2023-03-13T23:28:46.544Z,7.64
2023-03-13T23:31:16.598Z,7.58
2023-03-13T23:33:44.678Z,7.57
2023-03-13T23:36:14.768Z,7.46
2023-03-13T23:38:42.497Z,7.50
2023-03-13T23:41:11.446Z,7.46
2023-03-13T23:43:39.474Z,7.35
2023-03-13T23:46:15.940Z,7.52
2023-03-13T23:48:43.532Z,7.46
2023-03-13T23:51:11.273Z,7.41
2023-03-13T23:53:39.210Z,7.20
2023-03-13T23:56:07.730Z,7.30
2023-03-13T23:58:35.629Z,7.06
